Lemmer, Netherlands
Current Conditions -  °F | °C
As of 11:35 PM on Monday 26 Jan 2015 (Local Time) from EHLW Reporting Station
Light Rain Light Rain  
Wind Chill: 32°   Ceiling: 2500
Heat Index: 39°   Visibility: 4mi
Dew Point: 37°   Wind: 13mph
Humidity: 93%   Direction: 330°NNW
Pressure: 30.09"   Gusts: NA
Location:  52.85°N, 5.71°E
Report Text: EHLW 262235Z AUTO 33011KT 6000 -RA FEW013 SCT017 BKN025 04/03 Q1019 WHT
Loading
Personal Weather Stations






























Interactive Weather Map New forecast layout! Learn more

10-Day Weather Forecast

Advertisements
Track Severe Weather on mobile